createdAt,value
2017-04-19T00:00:14.215Z,16.73
2017-04-19T00:00:42.561Z,16.77
2017-04-19T00:01:10.885Z,16.7
2017-04-19T00:01:39.233Z,16.74
2017-04-19T00:02:07.369Z,16.76
2017-04-19T00:02:35.523Z,16.69
2017-04-19T00:03:03.751Z,16.72
2017-04-19T00:03:32.084Z,16.67
2017-04-19T00:04:00.422Z,16.73
2017-04-19T00:04:28.688Z,16.69
2017-04-19T00:04:57.037Z,16.69
2017-04-19T00:05:25.467Z,16.74
2017-04-19T00:05:53.816Z,16.72
2017-04-19T00:06:21.971Z,16.69
2017-04-19T00:06:50.179Z,16.7
2017-04-19T00:07:18.506Z,16.63
2017-04-19T00:07:46.869Z,16.62
2017-04-19T00:08:15.083Z,16.7
2017-04-19T00:08:43.156Z,16.63
2017-04-19T00:09:11.415Z,16.67
2017-04-19T00:09:39.650Z,16.7
2017-04-19T00:10:08.182Z,16.63
2017-04-19T00:10:36.466Z,16.66
2017-04-19T00:11:04.845Z,16.66
2017-04-19T00:11:33.890Z,16.67
2017-04-19T00:12:02.146Z,16.66
2017-04-19T00:12:30.236Z,16.63
2017-04-19T00:12:58.668Z,16.66
2017-04-19T00:13:26.846Z,16.65
2017-04-19T00:13:54.943Z,16.54
2017-04-19T00:14:23.166Z,16.67
2017-04-19T00:14:51.373Z,16.66
2017-04-19T00:15:19.719Z,16.62
2017-04-19T00:15:48.293Z,16.66
2017-04-19T00:16:16.530Z,16.66
2017-04-19T00:16:44.644Z,16.65
2017-04-19T00:17:12.843Z,16.66
2017-04-19T00:17:41.881Z,16.67
2017-04-19T00:18:10.164Z,16.66
2017-04-19T00:18:38.472Z,16.67
2017-04-19T00:19:06.817Z,16.63
2017-04-19T00:19:35.050Z,16.66
2017-04-19T00:20:03.129Z,16.65
2017-04-19T00:20:31.413Z,16.63
2017-04-19T00:20:59.800Z,16.62
2017-04-19T00:21:28.228Z,16.65
2017-04-19T00:21:56.476Z,16.58
2017-04-19T00:22:24.634Z,16.67
2017-04-19T00:22:52.890Z,16.72
2017-04-19T00:23:21.154Z,16.67
2017-04-19T00:23:49.377Z,16.62
2017-04-19T00:24:17.736Z,16.65
2017-04-19T00:24:45.829Z,16.66
2017-04-19T00:25:14.067Z,16.7
2017-04-19T00:25:42.248Z,16.59
2017-04-19T00:26:10.273Z,16.63
2017-04-19T00:26:38.665Z,16.66
2017-04-19T00:27:06.995Z,16.66
2017-04-19T00:27:35.081Z,16.62
2017-04-19T00:28:03.253Z,16.69
2017-04-19T00:28:31.574Z,16.7
2017-04-19T00:28:59.766Z,16.65
2017-04-19T00:29:28.228Z,16.66
2017-04-19T00:29:56.506Z,16.69
2017-04-19T00:30:24.682Z,16.65
2017-04-19T00:30:52.806Z,16.66
2017-04-19T00:31:21.115Z,16.7
2017-04-19T00:31:49.359Z,16.73
2017-04-19T00:32:17.630Z,16.73
2017-04-19T00:32:45.895Z,16.59
2017-04-19T00:33:14.173Z,16.63
2017-04-19T00:33:42.522Z,16.59
2017-04-19T00:34:10.801Z,16.57
2017-04-19T00:34:38.975Z,16.65
2017-04-19T00:35:07.274Z,16.69
2017-04-19T00:35:35.640Z,16.58
2017-04-19T00:36:03.890Z,16.59
2017-04-19T00:36:32.201Z,16.58
2017-04-19T00:37:00.231Z,16.66
2017-04-19T00:37:28.580Z,16.67
2017-04-19T00:37:56.875Z,16.62
2017-04-19T00:38:25.059Z,16.69
2017-04-19T00:38:53.282Z,16.65
2017-04-19T00:39:21.631Z,16.69
2017-04-19T00:39:49.799Z,16.66
2017-04-19T00:40:18.059Z,16.66
2017-04-19T00:40:46.339Z,16.58
2017-04-19T00:41:14.681Z,16.57
2017-04-19T00:41:42.926Z,16.62
2017-04-19T00:42:11.100Z,16.66
2017-04-19T00:42:39.328Z,16.63
2017-04-19T00:43:07.864Z,16.66
2017-04-19T00:43:36.327Z,16.63
2017-04-19T00:44:04.577Z,16.62
2017-04-19T00:44:32.814Z,16.67
2017-04-19T00:45:00.988Z,16.62
2017-04-19T00:45:29.295Z,16.52
2017-04-19T00:45:57.562Z,16.59
2017-04-19T00:46:25.882Z,16.57
2017-04-19T00:46:54.079Z,16.52
2017-04-19T00:47:22.415Z,16.52
2017-04-19T00:47:50.811Z,16.49
2017-04-19T00:48:18.801Z,16.52
2017-04-19T00:48:47.128Z,16.49
2017-04-19T00:49:15.412Z,16.52
2017-04-19T00:49:43.648Z,16.49
2017-04-19T00:50:11.825Z,16.55
2017-04-19T00:50:39.928Z,16.49
2017-04-19T00:51:08.195Z,16.51
2017-04-19T00:51:36.698Z,16.55
2017-04-19T00:52:05.119Z,16.52
2017-04-19T00:52:33.646Z,16.45
2017-04-19T00:53:02.029Z,16.49
2017-04-19T00:53:30.282Z,16.54
2017-04-19T00:53:58.582Z,16.52
2017-04-19T00:54:27.661Z,16.49
2017-04-19T00:54:55.820Z,16.54
2017-04-19T00:55:24.058Z,16.51
2017-04-19T00:55:52.306Z,16.55
2017-04-19T00:56:20.596Z,16.49
2017-04-19T00:56:48.944Z,16.51
2017-04-19T00:57:17.277Z,16.52
2017-04-19T00:57:45.501Z,16.52
2017-04-19T00:58:13.801Z,16.51
2017-04-19T00:58:42.012Z,16.54
2017-04-19T00:59:10.326Z,16.49
2017-04-19T00:59:38.646Z,16.54
2017-04-19T01:00:06.699Z,16.54
2017-04-19T01:00:34.917Z,16.55
2017-04-19T01:01:03.290Z,16.52
2017-04-19T01:01:31.796Z,16.54
2017-04-19T01:02:01.131Z,16.49
2017-04-19T01:02:29.533Z,16.57
2017-04-19T01:02:57.802Z,16.49
2017-04-19T01:03:26.438Z,16.48
2017-04-19T01:03:55.687Z,16.4
2017-04-19T01:04:23.898Z,16.49
2017-04-19T01:04:52.031Z,16.51
2017-04-19T01:05:20.283Z,16.48
2017-04-19T01:05:48.326Z,16.42
2017-04-19T01:06:16.450Z,16.54
2017-04-19T01:06:44.654Z,16.44
2017-04-19T01:07:12.905Z,16.48
2017-04-19T01:07:40.962Z,16.45
2017-04-19T01:08:09.237Z,16.48
2017-04-19T01:08:37.364Z,16.45
2017-04-19T01:09:05.518Z,16.44
2017-04-19T01:09:33.650Z,16.54
2017-04-19T01:10:01.689Z,16.42
2017-04-19T01:10:29.915Z,16.52
2017-04-19T01:10:58.074Z,16.54
2017-04-19T01:11:26.270Z,16.49
2017-04-19T01:11:54.485Z,16.45
2017-04-19T01:12:22.540Z,16.48
2017-04-19T01:12:50.762Z,16.4
2017-04-19T01:13:18.976Z,16.52
2017-04-19T01:13:47.122Z,16.47
2017-04-19T01:14:15.259Z,16.42
2017-04-19T01:14:43.409Z,16.42
2017-04-19T01:15:11.659Z,16.44
2017-04-19T01:15:39.909Z,16.42
2017-04-19T01:16:08.133Z,16.42
2017-04-19T01:16:36.370Z,16.4
2017-04-19T01:17:04.663Z,16.37
2017-04-19T01:17:32.790Z,16.42
2017-04-19T01:18:00.992Z,16.39
2017-04-19T01:18:28.958Z,16.34
2017-04-19T01:18:57.173Z,16.42
2017-04-19T01:19:25.280Z,16.42
2017-04-19T01:19:53.439Z,16.48
2017-04-19T01:20:21.471Z,16.48
2017-04-19T01:20:49.412Z,16.4
2017-04-19T01:21:17.529Z,16.48
2017-04-19T01:21:45.778Z,16.47
2017-04-19T01:22:14.048Z,16.42
2017-04-19T01:22:42.184Z,16.39
2017-04-19T01:23:10.383Z,16.47
2017-04-19T01:23:38.415Z,16.36
2017-04-19T01:24:06.662Z,16.36
2017-04-19T01:24:34.889Z,16.34
2017-04-19T01:25:03.005Z,16.33
2017-04-19T01:25:31.406Z,16.32
2017-04-19T01:25:59.644Z,16.32
2017-04-19T01:26:27.697Z,16.25
2017-04-19T01:26:55.956Z,16.22
2017-04-19T01:27:24.088Z,16.25
2017-04-19T01:27:52.275Z,16.18
2017-04-19T01:28:20.341Z,16.26
2017-04-19T01:28:48.459Z,16.21
2017-04-19T01:29:16.621Z,16.3
2017-04-19T01:29:44.840Z,16.29
2017-04-19T01:30:12.975Z,16.26
2017-04-19T01:30:41.156Z,16.22
2017-04-19T01:31:09.384Z,16.17
2017-04-19T01:31:37.614Z,16.14
2017-04-19T01:32:05.622Z,16.21
2017-04-19T01:32:33.850Z,16.21
2017-04-19T01:33:02.044Z,16.25
2017-04-19T01:33:30.180Z,16.3
2017-04-19T01:33:58.482Z,16.3
2017-04-19T01:34:26.704Z,16.25
2017-04-19T01:34:54.738Z,16.25
2017-04-19T01:35:22.859Z,16.29
2017-04-19T01:35:50.994Z,16.29
2017-04-19T01:36:19.262Z,16.29
2017-04-19T01:36:47.107Z,16.22
2017-04-19T01:37:15.275Z,16.36
2017-04-19T01:37:43.470Z,16.32
2017-04-19T01:38:11.661Z,16.18
2017-04-19T01:38:39.888Z,16.13
2017-04-19T01:39:08.153Z,16.22
2017-04-19T01:39:36.530Z,16.29
2017-04-19T01:40:04.650Z,16.18
2017-04-19T01:40:32.892Z,16.22
2017-04-19T01:41:00.987Z,16.22
2017-04-19T01:41:29.041Z,16.18
2017-04-19T01:41:57.159Z,16.18
2017-04-19T01:42:25.482Z,16.21
2017-04-19T01:42:53.543Z,16.21
2017-04-19T01:43:21.571Z,16.16
2017-04-19T01:43:49.812Z,16.11
2017-04-19T01:44:18.080Z,16.08
2017-04-19T01:44:46.153Z,16.13
2017-04-19T01:45:14.411Z,16.14
2017-04-19T01:45:42.605Z,16.1
2017-04-19T01:46:10.611Z,16.11
2017-04-19T01:46:38.758Z,16.13
2017-04-19T01:47:07.062Z,16.1
2017-04-19T01:47:35.235Z,16.1
2017-04-19T01:48:03.373Z,16.13
2017-04-19T01:48:31.547Z,16.16
2017-04-19T01:48:59.804Z,16.1
2017-04-19T01:49:28.021Z,16.14
2017-04-19T01:49:56.254Z,16.11
2017-04-19T01:50:24.474Z,16.08
2017-04-19T01:50:52.814Z,16.13
2017-04-19T01:51:21.039Z,16.13
2017-04-19T01:51:49.268Z,16.13
2017-04-19T01:52:17.226Z,16.11
2017-04-19T01:52:45.345Z,16.13
2017-04-19T01:53:13.594Z,16.17
2017-04-19T01:53:41.758Z,16.26
2017-04-19T01:54:09.889Z,16.18
2017-04-19T01:54:38.030Z,16.21
2017-04-19T01:55:06.251Z,16.25
2017-04-19T01:55:34.482Z,16.18
2017-04-19T01:56:02.557Z,16.17
2017-04-19T01:56:30.645Z,16.17
2017-04-19T01:56:58.863Z,16.21
2017-04-19T01:57:27.143Z,16.25
2017-04-19T01:57:55.308Z,16.16
2017-04-19T01:58:23.317Z,16.13
2017-04-19T01:58:51.428Z,16.11
2017-04-19T01:59:19.654Z,16.13
2017-04-19T01:59:47.801Z,16.11
2017-04-19T02:00:15.931Z,16.08
2017-04-19T02:00:44.201Z,16.16
2017-04-19T02:01:12.415Z,16.13
2017-04-19T02:01:40.715Z,16.04
2017-04-19T02:02:08.926Z,16.08
2017-04-19T02:02:37.198Z,16.07
2017-04-19T02:03:05.427Z,16.16
2017-04-19T02:03:33.474Z,16.04
2017-04-19T02:04:01.744Z,16.07
2017-04-19T02:04:29.958Z,16.08
2017-04-19T02:04:58.088Z,16.02
2017-04-19T02:05:26.251Z,16.08
2017-04-19T02:05:54.473Z,16.13
2017-04-19T02:06:22.690Z,16.17
2017-04-19T02:06:50.701Z,16.06
2017-04-19T02:07:19.065Z,16.08
2017-04-19T02:07:47.124Z,16.18
2017-04-19T02:08:15.351Z,16.11
2017-04-19T02:08:43.478Z,16.13
2017-04-19T02:09:11.748Z,16.18
2017-04-19T02:09:39.936Z,16.13
2017-04-19T02:10:08.150Z,16.13
2017-04-19T02:10:36.382Z,16.13
2017-04-19T02:11:04.643Z,16.22
2017-04-19T02:11:32.761Z,16.18
2017-04-19T02:12:00.985Z,16.17
2017-04-19T02:12:29.310Z,16.21
2017-04-19T02:12:57.451Z,16.17
2017-04-19T02:13:25.601Z,16.21
2017-04-19T02:13:53.725Z,16.16
2017-04-19T02:14:21.973Z,16.3
2017-04-19T02:14:50.183Z,16.22
2017-04-19T02:15:18.421Z,16.22
2017-04-19T02:15:46.566Z,16.13
2017-04-19T02:16:14.816Z,16.29
2017-04-19T02:16:43.036Z,16.25
2017-04-19T02:17:11.216Z,16.22
2017-04-19T02:17:39.528Z,16.13
2017-04-19T02:18:07.543Z,16.3
2017-04-19T02:18:35.687Z,16.33
2017-04-19T02:19:03.829Z,16.29
2017-04-19T02:19:31.939Z,16.32
2017-04-19T02:20:00.180Z,16.22
2017-04-19T02:20:28.235Z,16.22
2017-04-19T02:20:56.326Z,16.21
2017-04-19T02:21:24.509Z,16.25
2017-04-19T02:21:52.641Z,16.33
2017-04-19T02:22:21.002Z,16.32
2017-04-19T02:22:49.311Z,16.29
2017-04-19T02:23:17.184Z,16.32
2017-04-19T02:23:45.367Z,16.29
2017-04-19T02:24:13.484Z,16.33
2017-04-19T02:24:41.586Z,16.33
2017-04-19T02:25:09.623Z,16.3
2017-04-19T02:25:37.760Z,16.29
2017-04-19T02:26:05.959Z,16.26
2017-04-19T02:26:34.300Z,16.34
2017-04-19T02:27:02.539Z,16.3
2017-04-19T02:27:30.759Z,16.39
2017-04-19T02:27:58.804Z,16.34
2017-04-19T02:28:26.851Z,16.37
2017-04-19T02:28:55.011Z,16.33
2017-04-19T02:29:23.235Z,16.33
2017-04-19T02:29:51.290Z,16.27
2017-04-19T02:30:19.349Z,16.32
2017-04-19T02:30:47.495Z,16.27
2017-04-19T02:31:15.770Z,16.21
2017-04-19T02:31:44.009Z,16.29
2017-04-19T02:32:12.228Z,16.3
2017-04-19T02:32:40.571Z,16.3
2017-04-19T02:33:08.797Z,16.18
2017-04-19T02:33:37.089Z,16.18
2017-04-19T02:34:05.142Z,16.21
2017-04-19T02:34:33.174Z,16.18
2017-04-19T02:35:01.310Z,16.21
2017-04-19T02:35:29.452Z,16.18
2017-04-19T02:35:57.564Z,16.21
2017-04-19T02:36:25.704Z,16.25
2017-04-19T02:36:53.969Z,16.22
2017-04-19T02:37:22.008Z,16.27
2017-04-19T02:37:50.206Z,16.21
2017-04-19T02:38:18.377Z,16.17
2017-04-19T02:38:46.453Z,16.21
2017-04-19T02:39:14.694Z,16.18
2017-04-19T02:39:42.920Z,16.16
2017-04-19T02:40:10.775Z,16.18
2017-04-19T02:40:39.076Z,16.25
2017-04-19T02:41:07.273Z,16.21
2017-04-19T02:41:35.385Z,16.16
2017-04-19T02:42:03.617Z,16.17
2017-04-19T02:42:31.945Z,16.1
2017-04-19T02:43:00.203Z,16.1
2017-04-19T02:43:28.336Z,16.11
2017-04-19T02:43:56.425Z,16.14
2017-04-19T02:44:24.662Z,16.14
2017-04-19T02:44:52.915Z,16.11
2017-04-19T02:45:20.931Z,16.13
2017-04-19T02:45:49.140Z,16.14
2017-04-19T02:46:17.348Z,16.08
2017-04-19T02:46:45.362Z,16.14
2017-04-19T02:47:13.382Z,16.16
2017-04-19T02:47:41.712Z,16.14
2017-04-19T02:48:09.893Z,16.06
2017-04-19T02:48:37.926Z,16.07
2017-04-19T02:49:06.083Z,16.07
2017-04-19T02:49:34.337Z,16.14
2017-04-19T02:50:02.400Z,16.14
2017-04-19T02:50:30.477Z,16.13
2017-04-19T02:50:58.418Z,16.14
2017-04-19T02:51:26.653Z,16.07
2017-04-19T02:51:54.852Z,16.14
2017-04-19T02:52:22.959Z,16.14
2017-04-19T02:52:51.310Z,16.06
2017-04-19T02:53:19.538Z,16.16
2017-04-19T02:53:47.776Z,16.17
2017-04-19T02:54:15.941Z,16.17
2017-04-19T02:54:44.162Z,16.17
2017-04-19T02:55:12.285Z,16.16
2017-04-19T02:55:40.538Z,16.11
2017-04-19T02:56:08.761Z,16.02
2017-04-19T02:56:36.924Z,16.07
2017-04-19T02:57:05.183Z,16.17
2017-04-19T02:57:33.311Z,16.16
2017-04-19T02:58:01.483Z,16.16
2017-04-19T02:58:29.576Z,15.99
2017-04-19T02:58:57.497Z,16.06
2017-04-19T02:59:25.637Z,16.04
2017-04-19T02:59:53.791Z,16.11
2017-04-19T03:00:22.029Z,16.18
2017-04-19T03:00:50.289Z,16.08
2017-04-19T03:01:18.397Z,16.18
2017-04-19T03:01:46.434Z,16.06
2017-04-19T03:02:14.658Z,16.13
2017-04-19T03:02:42.905Z,16.16
2017-04-19T03:03:11.036Z,16.14
2017-04-19T03:03:39.161Z,16.07
2017-04-19T03:04:07.164Z,16.18
2017-04-19T03:04:35.351Z,16.11
2017-04-19T03:05:03.578Z,16.14
2017-04-19T03:05:31.624Z,16.07
2017-04-19T03:05:59.671Z,16.06
2017-04-19T03:06:27.891Z,16.14
2017-04-19T03:06:56.117Z,16.16
2017-04-19T03:07:24.149Z,16.04
2017-04-19T03:07:52.683Z,16.04
2017-04-19T03:08:20.808Z,16.06
2017-04-19T03:08:49.003Z,16.14
2017-04-19T03:09:17.140Z,16.08
2017-04-19T03:09:45.265Z,16.06
2017-04-19T03:10:13.542Z,16.04
2017-04-19T03:10:41.674Z,16.02
2017-04-19T03:11:09.901Z,16.18
2017-04-19T03:11:38.126Z,16.07
2017-04-19T03:12:06.377Z,16.17
2017-04-19T03:12:34.536Z,16.04
2017-04-19T03:13:02.810Z,16.17
2017-04-19T03:13:30.950Z,16.13
2017-04-19T03:13:59.010Z,16.07
2017-04-19T03:14:27.162Z,16.11
2017-04-19T03:14:55.407Z,16.11
2017-04-19T03:15:23.529Z,16.08
2017-04-19T03:15:51.631Z,16.07
2017-04-19T03:16:19.837Z,16.1
2017-04-19T03:16:48.083Z,16.07
2017-04-19T03:17:16.280Z,16.04
2017-04-19T03:17:44.485Z,16.02
2017-04-19T03:18:12.611Z,16.04
2017-04-19T03:18:40.815Z,16.06
2017-04-19T03:19:08.778Z,15.99
2017-04-19T03:19:37.013Z,15.99
2017-04-19T03:20:05.139Z,16.04
2017-04-19T03:20:33.149Z,15.99
2017-04-19T03:21:01.394Z,16.06
2017-04-19T03:21:29.609Z,16.02
2017-04-19T03:21:57.714Z,16.02
2017-04-19T03:22:25.720Z,16
2017-04-19T03:22:53.804Z,15.96
2017-04-19T03:23:22.037Z,15.96
2017-04-19T03:23:50.209Z,15.96
2017-04-19T03:24:18.487Z,16
2017-04-19T03:24:46.715Z,15.96
2017-04-19T03:25:14.881Z,15.95
2017-04-19T03:25:42.997Z,15.96
2017-04-19T03:26:11.162Z,15.96
2017-04-19T03:26:39.202Z,15.96
2017-04-19T03:27:07.256Z,15.98
2017-04-19T03:27:35.403Z,15.93
2017-04-19T03:28:03.546Z,15.92
2017-04-19T03:28:31.749Z,15.92
2017-04-19T03:28:59.735Z,15.81
2017-04-19T03:29:28.056Z,15.86
2017-04-19T03:29:56.280Z,15.91
2017-04-19T03:30:24.431Z,15.88
2017-04-19T03:30:52.553Z,15.93
2017-04-19T03:31:20.739Z,15.83
2017-04-19T03:31:49.041Z,15.91
2017-04-19T03:32:17.301Z,15.84
2017-04-19T03:32:45.576Z,15.86
2017-04-19T03:33:13.728Z,15.84
2017-04-19T03:33:41.806Z,15.83
2017-04-19T03:34:10.134Z,15.81
2017-04-19T03:34:38.342Z,15.86
2017-04-19T03:35:06.512Z,15.86
2017-04-19T03:35:34.750Z,15.86
2017-04-19T03:36:02.928Z,15.86
2017-04-19T03:36:31.249Z,15.88
2017-04-19T03:36:59.418Z,15.86
2017-04-19T03:37:27.549Z,15.83
2017-04-19T03:37:55.656Z,15.84
2017-04-19T03:38:23.828Z,15.84
2017-04-19T03:38:52.062Z,15.88
2017-04-19T03:39:20.310Z,15.88
2017-04-19T03:39:48.492Z,15.91
2017-04-19T03:40:16.697Z,15.86
2017-04-19T03:40:44.834Z,15.83
2017-04-19T03:41:12.953Z,15.86
2017-04-19T03:41:41.034Z,15.78
2017-04-19T03:42:09.297Z,15.89
2017-04-19T03:42:37.343Z,15.81
2017-04-19T03:43:05.621Z,15.86
2017-04-19T03:43:33.849Z,15.86
2017-04-19T03:44:01.998Z,15.81
2017-04-19T03:44:30.269Z,15.74
2017-04-19T03:44:58.281Z,15.75
2017-04-19T03:45:26.513Z,15.77
2017-04-19T03:45:54.527Z,15.78
2017-04-19T03:46:22.625Z,15.78
2017-04-19T03:46:50.763Z,15.73
2017-04-19T03:47:18.679Z,15.77
2017-04-19T03:47:46.832Z,15.77
2017-04-19T03:48:15.104Z,15.77
2017-04-19T03:48:43.211Z,15.74
2017-04-19T03:49:11.348Z,15.77
2017-04-19T03:49:39.415Z,15.74
2017-04-19T03:50:07.560Z,15.75
2017-04-19T03:50:35.777Z,15.75
2017-04-19T03:51:04.062Z,15.77
2017-04-19T03:51:32.290Z,15.74
2017-04-19T03:52:00.520Z,15.77
2017-04-19T03:52:28.632Z,15.78
2017-04-19T03:52:56.863Z,15.75
2017-04-19T03:53:25.021Z,15.77
2017-04-19T03:53:53.302Z,15.75
2017-04-19T03:54:21.552Z,15.74
2017-04-19T03:54:49.676Z,15.74
2017-04-19T03:55:17.821Z,15.75
2017-04-19T03:55:46.102Z,15.74
2017-04-19T03:56:14.289Z,15.65
2017-04-19T03:56:42.508Z,15.7
2017-04-19T03:57:10.698Z,15.71
2017-04-19T03:57:38.629Z,15.73
2017-04-19T03:58:06.952Z,15.74
2017-04-19T03:58:35.177Z,15.74
2017-04-19T03:59:03.315Z,15.77
2017-04-19T03:59:31.279Z,15.7
2017-04-19T03:59:59.582Z,15.77
2017-04-19T04:00:27.628Z,15.73
2017-04-19T04:00:55.853Z,15.65
2017-04-19T04:01:24.066Z,15.65
2017-04-19T04:01:52.291Z,15.63
2017-04-19T04:02:20.491Z,15.63
2017-04-19T04:02:48.653Z,15.67
2017-04-19T04:03:16.898Z,15.67
2017-04-19T04:03:45.077Z,15.62
2017-04-19T04:04:13.330Z,15.67
2017-04-19T04:04:41.551Z,15.7
2017-04-19T04:05:09.754Z,15.68
2017-04-19T04:05:37.885Z,15.65
2017-04-19T04:06:06.016Z,15.67
2017-04-19T04:06:34.062Z,15.71
2017-04-19T04:07:02.183Z,15.67
2017-04-19T04:07:30.479Z,15.67
2017-04-19T04:07:58.620Z,15.65
2017-04-19T04:08:26.978Z,15.73
2017-04-19T04:08:55.125Z,15.63
2017-04-19T04:09:23.379Z,15.7
2017-04-19T04:09:51.340Z,15.67
2017-04-19T04:10:19.409Z,15.63
2017-04-19T04:10:47.651Z,15.73
2017-04-19T04:11:15.890Z,15.63
2017-04-19T04:11:43.941Z,15.63
2017-04-19T04:12:12.183Z,15.63
2017-04-19T04:12:40.225Z,15.68
2017-04-19T04:13:08.428Z,15.71
2017-04-19T04:13:36.883Z,15.67
2017-04-19T04:14:04.965Z,15.62
2017-04-19T04:14:33.155Z,15.62
2017-04-19T04:15:01.406Z,15.6
2017-04-19T04:15:29.568Z,15.6
2017-04-19T04:15:57.791Z,15.7
2017-04-19T04:16:25.898Z,15.67
2017-04-19T04:16:54.182Z,15.74
2017-04-19T04:17:22.383Z,15.74
2017-04-19T04:17:50.414Z,15.65
2017-04-19T04:18:18.583Z,15.63
2017-04-19T04:18:46.705Z,15.67
2017-04-19T04:19:14.842Z,15.67
2017-04-19T04:19:43.068Z,15.71
2017-04-19T04:20:11.273Z,15.65
2017-04-19T04:20:39.519Z,15.65
2017-04-19T04:21:07.661Z,15.68
2017-04-19T04:21:35.865Z,15.71
2017-04-19T04:22:03.900Z,15.73
2017-04-19T04:22:32.061Z,15.73
2017-04-19T04:23:00.270Z,15.78
2017-04-19T04:23:28.859Z,15.75
2017-04-19T04:23:56.962Z,15.78
2017-04-19T04:24:25.224Z,15.77
2017-04-19T04:24:53.408Z,15.84
2017-04-19T04:25:21.563Z,15.78
2017-04-19T04:25:49.767Z,15.8
2017-04-19T04:26:17.808Z,15.83
2017-04-19T04:26:46.044Z,15.89
2017-04-19T04:27:14.308Z,15.91
2017-04-19T04:27:42.437Z,15.86
2017-04-19T04:28:10.746Z,15.92
2017-04-19T04:28:39.028Z,15.92
2017-04-19T04:29:07.287Z,15.98
2017-04-19T04:29:35.470Z,15.96
2017-04-19T04:30:03.625Z,15.96
2017-04-19T04:30:31.832Z,15.99
2017-04-19T04:31:00.080Z,15.99
2017-04-19T04:31:28.382Z,16
2017-04-19T04:31:56.527Z,16.04
2017-04-19T04:32:24.592Z,16.06
2017-04-19T04:32:52.680Z,16.02
2017-04-19T04:33:20.810Z,16.11
2017-04-19T04:33:49.139Z,16.08
2017-04-19T04:34:17.266Z,16.08
2017-04-19T04:34:45.529Z,16.13
2017-04-19T04:35:13.889Z,16.16
2017-04-19T04:35:41.928Z,16.13
2017-04-19T04:36:10.103Z,16.16
2017-04-19T04:36:38.287Z,16.11
2017-04-19T04:37:06.434Z,16.13
2017-04-19T04:37:34.831Z,16.14
2017-04-19T04:38:03.267Z,16.07
2017-04-19T04:38:31.364Z,16.13
2017-04-19T04:38:59.478Z,16.13
2017-04-19T04:39:27.626Z,16.22
2017-04-19T04:39:56.048Z,16.22
2017-04-19T04:40:24.196Z,16.22
2017-04-19T04:40:52.201Z,16.25
2017-04-19T04:41:20.375Z,16.18
2017-04-19T04:41:48.713Z,16.25
2017-04-19T04:42:16.784Z,16.18
2017-04-19T04:42:45.136Z,16.26
2017-04-19T04:43:13.238Z,16.22
2017-04-19T04:43:41.485Z,16.27
2017-04-19T04:44:09.761Z,16.29
2017-04-19T04:44:37.985Z,16.32
2017-04-19T04:45:06.112Z,16.3
2017-04-19T04:45:34.332Z,16.36
2017-04-19T04:46:02.485Z,16.34
2017-04-19T04:46:30.858Z,16.37
2017-04-19T04:46:59.044Z,16.37
2017-04-19T04:47:27.221Z,16.34
2017-04-19T04:47:55.333Z,16.39
2017-04-19T04:48:23.496Z,16.42
2017-04-19T04:48:51.664Z,16.37
2017-04-19T04:49:19.908Z,16.36
2017-04-19T04:49:48.047Z,16.42
2017-04-19T04:50:16.493Z,16.42
2017-04-19T04:50:44.758Z,16.4
2017-04-19T04:51:12.843Z,16.42
2017-04-19T04:51:40.951Z,16.39
2017-04-19T04:52:09.047Z,16.42
2017-04-19T04:52:37.191Z,16.44
2017-04-19T04:53:05.305Z,16.42
2017-04-19T04:53:33.509Z,16.47
2017-04-19T04:54:01.581Z,16.42
2017-04-19T04:54:29.660Z,16.44
2017-04-19T04:54:57.963Z,16.48
2017-04-19T04:55:26.182Z,16.44
2017-04-19T04:55:54.374Z,16.49
2017-04-19T04:56:22.571Z,16.48
2017-04-19T04:56:50.718Z,16.49
2017-04-19T04:57:18.884Z,16.44
2017-04-19T04:57:47.002Z,16.4
2017-04-19T04:58:15.109Z,16.42
2017-04-19T04:58:43.050Z,16.51
2017-04-19T04:59:11.540Z,16.47
2017-04-19T04:59:39.784Z,16.49
2017-04-19T05:00:08.051Z,16.44
2017-04-19T05:00:36.318Z,16.42
2017-04-19T05:01:04.714Z,16.48
2017-04-19T05:01:32.945Z,16.51
2017-04-19T05:02:01.103Z,16.49
2017-04-19T05:02:29.174Z,16.45
2017-04-19T05:02:57.508Z,16.37
2017-04-19T05:03:25.716Z,16.51
2017-04-19T05:03:53.987Z,16.55
2017-04-19T05:04:22.257Z,16.44
2017-04-19T05:04:50.401Z,16.37
2017-04-19T05:05:18.546Z,16.48
2017-04-19T05:05:46.644Z,16.39
2017-04-19T05:06:14.899Z,16.36
2017-04-19T05:06:43.129Z,16.36
2017-04-19T05:07:11.243Z,16.33
2017-04-19T05:07:39.371Z,16.32
2017-04-19T05:08:07.635Z,16.25
2017-04-19T05:08:35.803Z,16.33
2017-04-19T05:09:03.949Z,16.18
2017-04-19T05:09:32.181Z,16.22
2017-04-19T05:10:00.313Z,16.18
2017-04-19T05:10:28.452Z,16.21
2017-04-19T05:10:56.666Z,16.08
2017-04-19T05:11:24.816Z,16.13
2017-04-19T05:11:52.898Z,16.16
2017-04-19T05:12:21.712Z,16.16
2017-04-19T05:12:49.736Z,16.13
2017-04-19T05:13:17.843Z,16.14
2017-04-19T05:13:46.198Z,15.96
2017-04-19T05:14:14.304Z,16.08
2017-04-19T05:14:42.526Z,16.1
2017-04-19T05:15:10.587Z,16.02
2017-04-19T05:15:38.763Z,16.11
2017-04-19T05:16:06.909Z,16
2017-04-19T05:16:35.059Z,16.02
2017-04-19T05:17:03.305Z,16.04
2017-04-19T05:17:31.620Z,16
2017-04-19T05:17:59.659Z,16
2017-04-19T05:18:27.875Z,15.93
2017-04-19T05:18:56.119Z,15.89
2017-04-19T05:19:24.253Z,15.86
2017-04-19T05:19:52.517Z,15.96
2017-04-19T05:20:20.664Z,15.93
2017-04-19T05:20:48.743Z,15.86
2017-04-19T05:21:16.898Z,15.95
2017-04-19T05:21:44.920Z,15.96
2017-04-19T05:22:13.005Z,15.96
2017-04-19T05:22:41.063Z,15.96
2017-04-19T05:23:09.186Z,16.02
2017-04-19T05:23:37.358Z,16
2017-04-19T05:24:05.618Z,16
2017-04-19T05:24:33.761Z,16
2017-04-19T05:25:01.959Z,16
2017-04-19T05:25:30.096Z,16
2017-04-19T05:25:58.219Z,15.96
2017-04-19T05:26:26.494Z,15.93
2017-04-19T05:26:54.446Z,15.96
2017-04-19T05:27:22.722Z,15.91
2017-04-19T05:27:50.956Z,15.92
2017-04-19T05:28:19.095Z,15.91
2017-04-19T05:28:47.236Z,15.91
2017-04-19T05:29:15.604Z,15.84
2017-04-19T05:29:43.721Z,15.95
2017-04-19T05:30:11.860Z,15.96
2017-04-19T05:30:39.996Z,15.95
2017-04-19T05:31:08.087Z,15.93
2017-04-19T05:31:36.225Z,15.84
2017-04-19T05:32:04.581Z,15.96
2017-04-19T05:32:32.702Z,15.93
2017-04-19T05:33:00.916Z,15.96
2017-04-19T05:33:29.097Z,15.93
2017-04-19T05:33:57.319Z,15.95
2017-04-19T05:34:25.425Z,15.86
2017-04-19T05:34:53.651Z,15.92
2017-04-19T05:35:21.873Z,15.89
2017-04-19T05:35:50.113Z,15.83
2017-04-19T05:36:18.310Z,15.86
2017-04-19T05:36:46.412Z,15.89
2017-04-19T05:37:14.611Z,15.91
2017-04-19T05:37:42.646Z,15.89
2017-04-19T05:38:10.910Z,15.83
2017-04-19T05:38:39.078Z,15.88
2017-04-19T05:39:07.423Z,15.88
2017-04-19T05:39:35.689Z,15.88
2017-04-19T05:40:03.889Z,15.8
2017-04-19T05:40:32.152Z,15.77
2017-04-19T05:41:00.628Z,15.78
2017-04-19T05:41:28.779Z,15.73
2017-04-19T05:41:56.959Z,15.81
2017-04-19T05:42:24.952Z,15.81
2017-04-19T05:42:53.216Z,15.83
2017-04-19T05:43:21.592Z,15.71
2017-04-19T05:43:49.912Z,15.84
2017-04-19T05:44:18.126Z,15.8
2017-04-19T05:44:46.447Z,15.89
2017-04-19T05:45:14.708Z,15.78
2017-04-19T05:45:42.896Z,15.81
2017-04-19T05:46:11.148Z,15.92
2017-04-19T05:46:39.362Z,15.83
2017-04-19T05:47:07.440Z,15.84
2017-04-19T05:47:35.652Z,15.88
2017-04-19T05:48:03.675Z,15.89
2017-04-19T05:48:31.849Z,15.81
2017-04-19T05:49:00.136Z,15.86
2017-04-19T05:49:28.265Z,15.83
2017-04-19T05:49:56.378Z,15.91
2017-04-19T05:50:24.634Z,15.78
2017-04-19T05:50:52.795Z,15.78
2017-04-19T05:51:20.935Z,15.78
2017-04-19T05:51:49.170Z,15.78
2017-04-19T05:52:17.394Z,15.83
2017-04-19T05:52:45.586Z,15.78
2017-04-19T05:53:13.797Z,15.68
2017-04-19T05:53:41.842Z,15.77
2017-04-19T05:54:10.109Z,15.63
2017-04-19T05:54:38.050Z,15.77
2017-04-19T05:55:06.070Z,15.63
2017-04-19T05:55:33.984Z,15.67
2017-04-19T05:56:02.180Z,15.63
2017-04-19T05:56:30.338Z,15.65
2017-04-19T05:56:58.559Z,15.56
2017-04-19T05:57:26.715Z,15.59
2017-04-19T05:57:54.941Z,15.56
2017-04-19T05:58:23.189Z,15.53
2017-04-19T05:58:51.449Z,15.49
2017-04-19T05:59:19.681Z,15.47
2017-04-19T05:59:47.653Z,15.52
2017-04-19T06:00:15.832Z,15.53
2017-04-19T06:00:43.874Z,15.51
2017-04-19T06:01:12.073Z,15.52
2017-04-19T06:01:40.135Z,15.51
2017-04-19T06:02:08.153Z,15.44
2017-04-19T06:02:36.270Z,15.45
2017-04-19T06:03:04.485Z,15.51
2017-04-19T06:03:32.727Z,15.37
2017-04-19T06:04:00.863Z,15.37
2017-04-19T06:04:28.905Z,15.43